createdAt,value
2023-03-12T00:00:25.404Z,0.00
2023-03-12T00:01:25.430Z,0.00
2023-03-12T00:02:25.440Z,0.00
2023-03-12T00:03:25.483Z,0.00
2023-03-12T00:04:25.387Z,0.00
2023-03-12T00:05:25.393Z,0.00
2023-03-12T00:06:25.395Z,0.00
2023-03-12T00:07:25.389Z,0.00
2023-03-12T00:08:25.384Z,0.00
2023-03-12T00:09:25.382Z,0.00
2023-03-12T00:10:25.382Z,0.00
2023-03-12T00:11:25.381Z,0.00
2023-03-12T00:12:25.377Z,0.00
2023-03-12T00:13:25.378Z,0.00
2023-03-12T00:14:25.392Z,0.00
2023-03-12T00:15:25.376Z,0.00
2023-03-12T00:16:25.504Z,0.00
2023-03-12T00:17:25.369Z,0.00
2023-03-12T00:18:25.366Z,0.00
2023-03-12T00:19:25.367Z,0.00
2023-03-12T00:20:25.366Z,0.00
2023-03-12T00:21:25.364Z,0.00
2023-03-12T00:22:25.357Z,0.00
2023-03-12T00:23:25.362Z,0.00
2023-03-12T00:24:25.354Z,0.00
2023-03-12T00:25:25.351Z,0.00
2023-03-12T00:26:25.363Z,0.00
2023-03-12T00:27:25.346Z,0.00
2023-03-12T00:28:25.346Z,0.00
2023-03-12T00:29:25.341Z,0.00
2023-03-12T00:30:25.340Z,0.00
2023-03-12T00:31:25.395Z,0.00
2023-03-12T00:32:25.381Z,0.00
2023-03-12T00:33:25.332Z,0.00
2023-03-12T00:34:25.331Z,0.00
2023-03-12T00:35:25.373Z,0.00
2023-03-12T00:36:25.330Z,0.00
2023-03-12T00:37:25.332Z,0.00
2023-03-12T00:38:25.328Z,0.00
2023-03-12T00:39:25.318Z,0.00
2023-03-12T00:40:25.317Z,0.00
2023-03-12T00:41:25.325Z,0.00
2023-03-12T00:42:25.311Z,0.00
2023-03-12T00:43:25.307Z,0.00
2023-03-12T00:44:25.306Z,0.00
2023-03-12T00:45:25.306Z,0.00
2023-03-12T00:46:25.329Z,0.00
2023-03-12T00:47:25.301Z,0.00
2023-03-12T00:48:25.317Z,0.00
2023-03-12T00:49:25.305Z,0.00
2023-03-12T00:50:25.295Z,0.00
2023-03-12T00:51:25.294Z,0.00
2023-03-12T00:52:25.293Z,0.00
2023-03-12T00:53:25.286Z,0.00
2023-03-12T00:54:25.291Z,0.00
2023-03-12T00:55:25.283Z,0.00
2023-03-12T00:56:25.280Z,0.00
2023-03-12T00:57:25.276Z,0.00
2023-03-12T00:58:25.284Z,0.00
2023-03-12T00:59:25.275Z,0.00
2023-03-12T01:00:25.298Z,0.00
2023-03-12T01:01:25.269Z,0.00
2023-03-12T01:02:25.268Z,0.00
2023-03-12T01:03:25.279Z,0.00
2023-03-12T01:04:25.324Z,0.00
2023-03-12T01:05:25.264Z,0.00
2023-03-12T01:06:25.262Z,0.00
2023-03-12T01:07:25.256Z,0.00
2023-03-12T01:08:25.256Z,0.00
2023-03-12T01:09:25.252Z,0.00
2023-03-12T01:10:25.249Z,0.00
2023-03-12T01:11:25.249Z,0.00
2023-03-12T01:12:25.249Z,0.00
2023-03-12T01:13:25.245Z,0.00
2023-03-12T01:14:25.243Z,0.00
2023-03-12T01:15:25.243Z,0.00
2023-03-12T01:16:25.254Z,0.00
2023-03-12T01:17:25.235Z,0.00
2023-03-12T01:18:25.243Z,0.00
2023-03-12T01:19:25.235Z,0.00
2023-03-12T01:20:25.236Z,0.00
2023-03-12T01:21:25.225Z,0.00
2023-03-12T01:22:25.233Z,0.00
2023-03-12T01:23:25.219Z,0.00
2023-03-12T01:24:25.237Z,0.00
2023-03-12T01:25:25.217Z,0.00
2023-03-12T01:26:25.219Z,0.00
2023-03-12T01:27:25.212Z,0.00
2023-03-12T01:28:25.208Z,0.00
2023-03-12T01:29:25.215Z,0.00
2023-03-12T01:30:25.206Z,0.00
2023-03-12T01:31:25.237Z,0.00
2023-03-12T01:32:25.241Z,0.00
2023-03-12T01:33:25.201Z,0.00
2023-03-12T01:34:25.196Z,0.00
2023-03-12T01:35:25.283Z,0.00
2023-03-12T01:36:25.238Z,0.00
2023-03-12T01:37:25.200Z,0.00
2023-03-12T01:38:25.183Z,0.00
2023-03-12T01:39:25.180Z,0.00
2023-03-12T01:40:25.180Z,0.00
2023-03-12T01:41:25.204Z,0.00
2023-03-12T01:42:25.170Z,0.00
2023-03-12T01:43:25.166Z,0.00
2023-03-12T01:44:25.163Z,0.00
2023-03-12T01:45:25.250Z,0.00
2023-03-12T01:46:25.168Z,0.00
2023-03-12T01:47:25.160Z,0.00
2023-03-12T01:48:25.154Z,0.00
2023-03-12T01:49:25.150Z,0.00
2023-03-12T01:50:25.147Z,0.00
2023-03-12T01:51:25.146Z,0.00
2023-03-12T01:52:25.149Z,0.00
2023-03-12T01:53:25.145Z,0.00
2023-03-12T01:54:25.138Z,0.00
2023-03-12T01:55:25.133Z,0.00
2023-03-12T01:56:25.136Z,0.00
2023-03-12T01:57:25.134Z,0.00
2023-03-12T01:58:25.124Z,0.00
2023-03-12T01:59:25.121Z,0.00
2023-03-12T02:00:25.129Z,0.00
2023-03-12T02:01:25.143Z,0.00
2023-03-12T02:02:25.167Z,0.00
2023-03-12T02:03:25.110Z,0.00
2023-03-12T02:04:25.118Z,0.00
2023-03-12T02:05:25.112Z,0.00
2023-03-12T02:06:25.106Z,0.00
2023-03-12T02:07:25.100Z,0.00
2023-03-12T02:08:25.092Z,0.00
2023-03-12T02:09:25.098Z,0.00
2023-03-12T02:10:25.098Z,0.00
2023-03-12T02:11:25.091Z,0.00
2023-03-12T02:12:25.084Z,0.00
2023-03-12T02:13:25.086Z,0.00
2023-03-12T02:14:25.086Z,0.00
2023-03-12T02:15:25.084Z,0.00
2023-03-12T02:16:25.125Z,0.00
2023-03-12T02:17:25.074Z,0.00
2023-03-12T02:18:25.069Z,0.00
2023-03-12T02:19:25.067Z,0.00
2023-03-12T02:20:25.073Z,0.00
2023-03-12T02:21:25.061Z,0.00
2023-03-12T02:22:25.063Z,0.00
2023-03-12T02:23:25.057Z,0.00
2023-03-12T02:24:25.053Z,0.00
2023-03-12T02:25:25.049Z,0.00
2023-03-12T02:26:25.047Z,0.00
2023-03-12T02:27:25.048Z,0.00
2023-03-12T02:28:25.041Z,0.00
2023-03-12T02:29:25.042Z,0.00
2023-03-12T02:30:25.040Z,0.00
2023-03-12T02:31:25.085Z,0.00
2023-03-12T02:32:25.035Z,0.00
2023-03-12T02:33:25.026Z,0.00
2023-03-12T02:34:25.024Z,0.00
2023-03-12T02:35:25.021Z,0.00
2023-03-12T02:36:25.019Z,0.00
2023-03-12T02:37:25.014Z,0.00
2023-03-12T02:38:25.019Z,0.00
2023-03-12T02:39:25.004Z,0.00
2023-03-12T02:40:25.001Z,0.00
2023-03-12T02:41:25.006Z,0.00
2023-03-12T02:42:25.001Z,0.00
2023-03-12T02:43:24.997Z,0.00
2023-03-12T02:44:25.008Z,0.00
2023-03-12T02:45:24.997Z,0.00
2023-03-12T02:46:25.119Z,0.00
2023-03-12T02:47:25.235Z,0.00
2023-03-12T02:48:24.998Z,0.00
2023-03-12T02:49:24.978Z,0.00
2023-03-12T02:50:24.984Z,0.00
2023-03-12T02:51:24.975Z,0.00
2023-03-12T02:52:24.971Z,0.00
2023-03-12T02:53:24.967Z,0.00
2023-03-12T02:54:24.965Z,0.00
2023-03-12T02:55:24.962Z,0.00
2023-03-12T02:56:24.957Z,0.00
2023-03-12T02:57:24.956Z,0.00
2023-03-12T02:58:24.951Z,0.00
2023-03-12T02:59:24.953Z,0.00
2023-03-12T03:00:24.946Z,0.00
2023-03-12T03:01:24.961Z,0.00
2023-03-12T03:02:24.941Z,0.00
2023-03-12T03:03:24.936Z,0.00
2023-03-12T03:04:25.024Z,0.00
2023-03-12T03:05:24.935Z,0.00
2023-03-12T03:06:24.929Z,0.00
2023-03-12T03:07:24.936Z,0.00
2023-03-12T03:08:24.923Z,0.00
2023-03-12T03:09:24.917Z,0.00
2023-03-12T03:10:24.915Z,0.00
2023-03-12T03:11:24.987Z,0.00
2023-03-12T03:12:24.912Z,0.00
2023-03-12T03:13:24.904Z,0.00
2023-03-12T03:14:24.901Z,0.00
2023-03-12T03:15:24.904Z,0.00
2023-03-12T03:16:24.897Z,0.00
2023-03-12T03:17:24.891Z,0.00
2023-03-12T03:18:24.912Z,0.00
2023-03-12T03:19:24.886Z,0.00
2023-03-12T03:20:24.886Z,0.00
2023-03-12T03:21:24.883Z,0.00
2023-03-12T03:22:24.882Z,0.00
2023-03-12T03:23:24.895Z,0.00
2023-03-12T03:24:24.872Z,0.00
2023-03-12T03:25:24.877Z,0.00
2023-03-12T03:26:24.865Z,0.00
2023-03-12T03:27:24.863Z,0.00
2023-03-12T03:28:24.860Z,0.00
2023-03-12T03:29:24.855Z,0.00
2023-03-12T03:30:24.859Z,0.00
2023-03-12T03:31:24.943Z,0.00
2023-03-12T03:32:24.889Z,0.00
2023-03-12T03:33:24.855Z,0.00
2023-03-12T03:34:24.839Z,0.00
2023-03-12T03:35:24.861Z,0.00
2023-03-12T03:36:24.838Z,0.00
2023-03-12T03:37:24.832Z,0.00
2023-03-12T03:38:24.825Z,0.00
2023-03-12T03:39:24.826Z,0.00
2023-03-12T03:40:24.814Z,0.00
2023-03-12T03:41:24.814Z,0.00
2023-03-12T03:42:24.810Z,0.00
2023-03-12T03:43:24.810Z,0.00
2023-03-12T03:44:24.804Z,0.00
2023-03-12T03:45:24.814Z,0.00
2023-03-12T03:46:24.855Z,0.00
2023-03-12T03:47:24.795Z,0.00
2023-03-12T03:48:24.796Z,0.00
2023-03-12T03:49:24.787Z,0.00
2023-03-12T03:50:24.783Z,0.00
2023-03-12T03:51:24.780Z,0.00
2023-03-12T03:52:24.779Z,0.00
2023-03-12T03:53:24.772Z,0.00
2023-03-12T03:54:24.768Z,0.00
2023-03-12T03:55:24.769Z,0.00
2023-03-12T03:56:24.765Z,0.00
2023-03-12T03:57:24.760Z,0.00
2023-03-12T03:58:24.755Z,0.00
2023-03-12T03:59:24.755Z,0.00
2023-03-12T04:00:24.747Z,0.00
2023-03-12T04:01:24.746Z,0.00
2023-03-12T04:02:24.743Z,0.00
2023-03-12T04:03:24.749Z,0.00
2023-03-12T04:04:24.752Z,0.00
2023-03-12T04:05:24.900Z,0.00
2023-03-12T04:06:24.729Z,0.00
2023-03-12T04:07:24.732Z,0.00
2023-03-12T04:08:24.722Z,0.00
2023-03-12T04:09:24.720Z,0.00
2023-03-12T04:10:24.713Z,0.00
2023-03-12T04:11:24.712Z,0.00
2023-03-12T04:12:24.708Z,0.00
2023-03-12T04:13:24.704Z,0.00
2023-03-12T04:14:24.701Z,0.00
2023-03-12T04:15:24.700Z,0.00
2023-03-12T04:16:24.752Z,0.00
2023-03-12T04:17:24.689Z,0.00
2023-03-12T04:18:24.738Z,0.00
2023-03-12T04:19:24.687Z,0.00
2023-03-12T04:20:24.683Z,0.00
2023-03-12T04:21:24.692Z,0.00
2023-03-12T04:22:24.680Z,0.00
2023-03-12T04:23:24.672Z,0.00
2023-03-12T04:24:24.665Z,0.00
2023-03-12T04:25:24.667Z,0.00
2023-03-12T04:26:24.665Z,0.00
2023-03-12T04:27:24.655Z,0.00
2023-03-12T04:28:24.653Z,0.00
2023-03-12T04:29:24.645Z,0.00
2023-03-12T04:30:24.646Z,0.00
2023-03-12T04:31:24.706Z,0.00
2023-03-12T04:32:24.645Z,0.00
2023-03-12T04:33:24.632Z,0.00
2023-03-12T04:34:24.640Z,0.00
2023-03-12T04:35:24.627Z,0.00
2023-03-12T04:36:24.620Z,0.00
2023-03-12T04:37:24.623Z,0.00
2023-03-12T04:38:24.614Z,0.00
2023-03-12T04:39:24.613Z,0.00
2023-03-12T04:40:24.610Z,0.00
2023-03-12T04:41:24.615Z,0.00
2023-03-12T04:42:24.602Z,0.00
2023-03-12T04:43:24.600Z,0.00
2023-03-12T04:44:24.598Z,0.00
2023-03-12T04:45:24.592Z,0.00
2023-03-12T04:46:24.674Z,0.00
2023-03-12T04:47:24.586Z,0.00
2023-03-12T04:48:24.584Z,0.00
2023-03-12T04:49:24.578Z,0.00
2023-03-12T04:50:24.578Z,0.00
2023-03-12T04:51:24.572Z,0.00
2023-03-12T04:52:24.579Z,0.00
2023-03-12T04:53:24.585Z,0.00
2023-03-12T04:54:24.569Z,0.00
2023-03-12T04:55:24.602Z,0.00
2023-03-12T04:56:24.555Z,0.00
2023-03-12T04:57:24.551Z,0.00
2023-03-12T04:58:24.546Z,0.00
2023-03-12T04:59:24.548Z,0.00
2023-03-12T05:00:24.542Z,0.00
2023-03-12T05:01:24.542Z,0.00
2023-03-12T05:02:24.543Z,0.00
2023-03-12T05:03:24.576Z,0.00
2023-03-12T05:04:24.527Z,0.00
2023-03-12T05:05:24.522Z,0.00
2023-03-12T05:06:24.519Z,0.00
2023-03-12T05:07:24.515Z,4.00
2023-03-12T05:08:24.512Z,0.00
2023-03-12T05:09:24.509Z,0.00
2023-03-12T05:10:24.506Z,4.00
2023-03-12T05:11:24.501Z,4.00
2023-03-12T05:12:24.502Z,4.00
2023-03-12T05:13:24.499Z,4.00
2023-03-12T05:14:24.489Z,4.00
2023-03-12T05:15:24.487Z,4.00
2023-03-12T05:16:24.541Z,4.00
2023-03-12T05:17:24.478Z,4.00
2023-03-12T05:18:24.476Z,8.00
2023-03-12T05:19:24.470Z,8.00
2023-03-12T05:20:24.470Z,8.00
2023-03-12T05:21:24.465Z,12.00
2023-03-12T05:22:24.467Z,12.00
2023-03-12T05:23:24.456Z,12.00
2023-03-12T05:24:24.450Z,16.00
2023-03-12T05:25:24.452Z,16.00
2023-03-12T05:26:24.451Z,20.00
2023-03-12T05:27:24.437Z,24.00
2023-03-12T05:28:24.437Z,24.00
2023-03-12T05:29:24.437Z,28.00
2023-03-12T05:30:24.426Z,32.00
2023-03-12T05:31:24.432Z,32.00
2023-03-12T05:32:24.430Z,36.00
2023-03-12T05:33:24.418Z,40.00
2023-03-12T05:34:24.422Z,44.00
2023-03-12T05:35:24.410Z,48.00
2023-03-12T05:36:24.414Z,52.00
2023-03-12T05:37:24.408Z,56.00
2023-03-12T05:38:24.402Z,60.00
2023-03-12T05:39:24.401Z,64.00
2023-03-12T05:40:24.396Z,68.00
2023-03-12T05:41:24.388Z,72.00
2023-03-12T05:42:24.382Z,80.00
2023-03-12T05:43:24.388Z,80.00
2023-03-12T05:44:24.375Z,84.00
2023-03-12T05:45:24.375Z,92.00
2023-03-12T05:46:24.369Z,92.00
2023-03-12T05:47:24.372Z,100.00
2023-03-12T05:48:24.361Z,100.00
2023-03-12T05:49:24.363Z,108.00
2023-03-12T05:50:24.353Z,112.00
2023-03-12T05:51:24.355Z,116.00
2023-03-12T05:52:24.346Z,120.00
2023-03-12T05:53:24.339Z,124.00
2023-03-12T05:54:24.350Z,128.00
2023-03-12T05:55:24.334Z,132.00
2023-03-12T05:56:24.328Z,144.00
2023-03-12T05:57:24.328Z,144.00
2023-03-12T05:58:24.324Z,148.00
2023-03-12T05:59:24.318Z,156.00
2023-03-12T06:00:24.311Z,164.00
2023-03-12T06:01:24.305Z,168.00
2023-03-12T06:02:24.323Z,172.00
2023-03-12T06:03:24.352Z,172.00
2023-03-12T06:04:24.292Z,180.00
2023-03-12T06:05:24.288Z,184.00
2023-03-12T06:06:24.284Z,192.00
2023-03-12T06:07:24.282Z,196.00
2023-03-12T06:08:24.277Z,200.00
2023-03-12T06:09:24.294Z,204.00
2023-03-12T06:10:24.268Z,204.00
2023-03-12T06:11:24.265Z,208.00
2023-03-12T06:12:24.259Z,212.00
2023-03-12T06:13:24.255Z,216.00
2023-03-12T06:14:24.259Z,220.00
2023-03-12T06:15:24.252Z,220.00
2023-03-12T06:16:24.350Z,224.00
2023-03-12T06:17:24.240Z,232.00
2023-03-12T06:18:24.239Z,228.00
2023-03-12T06:19:24.235Z,236.00
2023-03-12T06:20:24.235Z,236.00
2023-03-12T06:21:24.228Z,240.00
2023-03-12T06:22:24.220Z,244.00
2023-03-12T06:23:24.220Z,244.00
2023-03-12T06:24:24.215Z,244.00
2023-03-12T06:25:24.214Z,248.00
2023-03-12T06:26:24.215Z,252.00
2023-03-12T06:27:24.206Z,248.00
2023-03-12T06:28:24.201Z,252.00
2023-03-12T06:29:24.200Z,252.00
2023-03-12T06:30:24.193Z,256.00
2023-03-12T06:31:24.242Z,260.00
2023-03-12T06:32:24.252Z,260.00
2023-03-12T06:33:24.182Z,256.00
2023-03-12T06:34:24.183Z,256.00
2023-03-12T06:35:24.198Z,264.00
2023-03-12T06:36:24.171Z,264.00
2023-03-12T06:37:24.175Z,268.00
2023-03-12T06:38:24.169Z,264.00
2023-03-12T06:39:24.160Z,264.00
2023-03-12T06:40:24.157Z,264.00
2023-03-12T06:41:24.152Z,272.00
2023-03-12T06:42:24.156Z,280.00
2023-03-12T06:43:24.147Z,284.00
2023-03-12T06:44:24.141Z,288.00
2023-03-12T06:45:24.138Z,296.00
2023-03-12T06:46:24.167Z,300.00
2023-03-12T06:47:24.143Z,304.00
2023-03-12T06:48:24.131Z,308.00
2023-03-12T06:49:24.131Z,308.00
2023-03-12T06:50:24.120Z,312.00
2023-03-12T06:51:24.122Z,316.00
2023-03-12T06:52:24.113Z,324.00
2023-03-12T06:53:24.109Z,328.00
2023-03-12T06:54:24.107Z,336.00
2023-03-12T06:55:24.105Z,344.00
2023-03-12T06:56:24.101Z,348.00
2023-03-12T06:57:24.096Z,360.00
2023-03-12T06:58:24.092Z,368.00
2023-03-12T06:59:24.090Z,376.00
2023-03-12T07:00:24.086Z,384.00
2023-03-12T07:01:24.081Z,388.00
2023-03-12T07:02:24.125Z,392.00
2023-03-12T07:04:55.752Z,392.00
2023-03-12T07:05:55.751Z,404.00
2023-03-12T07:07:48.830Z,408.00
2023-03-12T07:08:48.824Z,404.00
2023-03-12T07:10:52.841Z,408.00
2023-03-12T07:11:52.837Z,408.00
2023-03-12T07:13:56.846Z,420.00
2023-03-12T07:14:56.832Z,420.00
2023-03-12T07:17:00.837Z,416.00
2023-03-12T07:18:00.822Z,412.00
2023-03-12T07:20:04.822Z,408.00
2023-03-12T07:21:04.822Z,400.00
2023-03-12T07:22:57.925Z,396.00
2023-03-12T07:23:57.921Z,400.00
2023-03-12T07:25:51.018Z,396.00
2023-03-12T07:26:51.010Z,400.00
2023-03-12T07:28:44.125Z,392.00
2023-03-12T07:29:44.112Z,392.00
2023-03-12T07:31:48.103Z,376.00
2023-03-12T07:32:48.118Z,368.00
2023-03-12T07:34:41.595Z,356.00
2023-03-12T07:35:41.422Z,348.00
2023-03-12T07:37:34.310Z,348.00
2023-03-12T07:38:34.303Z,340.00
2023-03-12T07:40:38.284Z,352.00
2023-03-12T07:41:38.276Z,352.00
2023-03-12T07:43:42.352Z,360.00
2023-03-12T07:44:42.294Z,364.00
2023-03-12T07:46:35.857Z,380.00
2023-03-12T07:47:35.953Z,392.00
2023-03-12T07:49:28.967Z,400.00
2023-03-12T07:50:29.078Z,392.00
2023-03-12T07:52:22.132Z,392.00
2023-03-12T07:53:22.048Z,396.00
2023-03-12T07:55:26.143Z,404.00
2023-03-12T07:56:26.130Z,408.00
2023-03-12T07:57:26.078Z,424.00
2023-03-12T07:58:26.080Z,440.00
2023-03-12T07:59:26.062Z,468.00
2023-03-12T08:00:26.064Z,496.00
2023-03-12T08:01:26.039Z,524.00
2023-03-12T08:02:26.105Z,540.00
2023-03-12T08:03:26.349Z,548.00
2023-03-12T08:04:26.183Z,548.00
2023-03-12T08:05:26.056Z,540.00
2023-03-12T08:06:26.009Z,520.00
2023-03-12T08:07:26.074Z,504.00
2023-03-12T08:08:26.116Z,504.00
2023-03-12T08:09:25.997Z,496.00
2023-03-12T08:10:26.083Z,488.00
2023-03-12T08:11:25.995Z,484.00
2023-03-12T08:12:26.014Z,476.00
2023-03-12T08:13:26.091Z,472.00
2023-03-12T08:14:26.035Z,472.00
2023-03-12T08:15:25.989Z,464.00
2023-03-12T08:16:26.031Z,452.00
2023-03-12T08:17:25.985Z,444.00
2023-03-12T08:18:26.006Z,436.00
2023-03-12T08:19:25.969Z,436.00
2023-03-12T08:20:25.965Z,436.00
2023-03-12T08:21:25.963Z,436.00
2023-03-12T08:22:25.960Z,444.00
2023-03-12T08:23:25.956Z,448.00
2023-03-12T08:24:25.954Z,464.00
2023-03-12T08:25:25.950Z,468.00
2023-03-12T08:26:25.961Z,480.00
2023-03-12T08:27:25.945Z,492.00
2023-03-12T08:28:25.941Z,516.00
2023-03-12T08:29:25.950Z,520.00
2023-03-12T08:30:28.393Z,516.00
2023-03-12T08:31:25.966Z,528.00
2023-03-12T08:32:25.982Z,548.00
2023-03-12T08:33:25.929Z,564.00
2023-03-12T08:34:25.921Z,576.00
2023-03-12T08:35:25.979Z,600.00
2023-03-12T08:36:25.918Z,628.00
2023-03-12T08:37:25.914Z,644.00
2023-03-12T08:38:25.912Z,652.00
2023-03-12T08:39:25.909Z,648.00
2023-03-12T08:40:25.906Z,640.00
2023-03-12T08:41:25.899Z,636.00
2023-03-12T08:42:25.899Z,632.00
2023-03-12T08:43:27.300Z,624.00
2023-03-12T08:44:25.898Z,612.00
2023-03-12T08:45:25.896Z,592.00
2023-03-12T08:46:25.997Z,572.00
2023-03-12T08:47:25.881Z,552.00
2023-03-12T08:48:25.884Z,536.00
2023-03-12T08:49:25.888Z,532.00
2023-03-12T08:50:25.880Z,536.00
2023-03-12T08:51:25.883Z,540.00
2023-03-12T08:52:25.876Z,532.00
2023-03-12T08:53:25.879Z,528.00
2023-03-12T08:54:25.869Z,520.00
2023-03-12T08:55:25.870Z,508.00
2023-03-12T08:56:25.860Z,500.00
2023-03-12T08:57:25.861Z,500.00
2023-03-12T08:58:25.857Z,496.00
2023-03-12T08:59:25.854Z,492.00
2023-03-12T09:00:25.853Z,492.00
2023-03-12T09:01:25.846Z,492.00
2023-03-12T09:02:25.847Z,488.00
2023-03-12T09:03:25.973Z,496.00
2023-03-12T09:04:25.939Z,500.00
2023-03-12T09:05:25.835Z,500.00
2023-03-12T09:06:25.834Z,516.00
2023-03-12T09:07:25.837Z,536.00
2023-03-12T09:08:25.830Z,564.00
2023-03-12T09:09:25.824Z,600.00
2023-03-12T09:10:25.821Z,632.00
2023-03-12T09:11:25.825Z,648.00
2023-03-12T09:12:25.816Z,672.00
2023-03-12T09:13:33.263Z,696.00
2023-03-12T09:15:01.453Z,728.00
2023-03-12T09:15:25.810Z,760.00
2023-03-12T09:16:25.836Z,796.00
2023-03-12T09:17:25.814Z,828.00
2023-03-12T09:18:25.797Z,824.00
2023-03-12T09:19:25.797Z,832.00
2023-03-12T09:20:25.932Z,820.00
2023-03-12T09:21:25.785Z,840.00
2023-03-12T09:22:25.791Z,864.00
2023-03-12T09:23:25.782Z,876.00
2023-03-12T09:24:25.781Z,852.00
2023-03-12T09:25:25.838Z,816.00
2023-03-12T09:26:25.776Z,788.00
2023-03-12T09:27:25.770Z,764.00
2023-03-12T09:28:25.768Z,748.00
2023-03-12T09:29:25.763Z,756.00
2023-03-12T09:30:25.774Z,784.00
2023-03-12T09:31:25.763Z,804.00
2023-03-12T09:32:25.861Z,800.00
2023-03-12T09:33:25.751Z,820.00
2023-03-12T09:34:25.759Z,824.00
2023-03-12T09:35:25.741Z,812.00
2023-03-12T09:36:25.752Z,800.00
2023-03-12T09:37:25.768Z,812.00
2023-03-12T09:38:25.743Z,812.00
2023-03-12T09:39:25.735Z,796.00
2023-03-12T09:40:25.773Z,772.00
2023-03-12T09:41:25.728Z,776.00
2023-03-12T09:42:25.729Z,776.00
2023-03-12T09:43:25.725Z,808.00
2023-03-12T09:44:25.727Z,832.00
2023-03-12T09:45:25.722Z,844.00
2023-03-12T09:46:25.759Z,860.00
2023-03-12T09:47:25.714Z,868.00
2023-03-12T09:48:25.712Z,872.00
2023-03-12T09:49:25.711Z,852.00
2023-03-12T09:50:25.746Z,824.00
2023-03-12T09:51:25.704Z,808.00
2023-03-12T09:52:25.705Z,820.00
2023-03-12T09:53:25.700Z,840.00
2023-03-12T09:54:25.714Z,860.00
2023-03-12T09:55:25.694Z,884.00
2023-03-12T09:56:25.693Z,892.00
2023-03-12T09:57:25.692Z,896.00
2023-03-12T09:58:25.690Z,884.00
2023-03-12T09:59:25.684Z,868.00
2023-03-12T10:00:25.697Z,864.00
2023-03-12T10:01:25.681Z,880.00
2023-03-12T10:02:25.684Z,876.00
2023-03-12T10:03:25.728Z,868.00
2023-03-12T10:04:25.761Z,888.00
2023-03-12T10:05:25.741Z,932.00
2023-03-12T10:06:25.690Z,1000.00
2023-03-12T10:07:25.665Z,1072.00
2023-03-12T10:08:29.314Z,1108.00
2023-03-12T10:09:25.663Z,1144.00
2023-03-12T10:10:25.667Z,1184.00
2023-03-12T10:11:25.656Z,1180.00
2023-03-12T10:12:25.660Z,1112.00
2023-03-12T10:13:25.652Z,1080.00
2023-03-12T10:14:25.648Z,1040.00
2023-03-12T10:15:25.645Z,1004.00
2023-03-12T10:16:25.644Z,976.00
2023-03-12T10:17:25.641Z,936.00
2023-03-12T10:18:25.754Z,868.00
2023-03-12T10:19:25.637Z,800.00
2023-03-12T10:20:25.633Z,776.00
2023-03-12T10:21:25.634Z,744.00
2023-03-12T10:22:25.630Z,756.00
2023-03-12T10:23:25.666Z,788.00
2023-03-12T10:24:25.622Z,796.00
2023-03-12T10:25:25.621Z,780.00
2023-03-12T10:26:25.644Z,768.00
2023-03-12T10:27:25.622Z,756.00
2023-03-12T10:28:25.615Z,772.00
2023-03-12T10:29:25.611Z,772.00
2023-03-12T10:30:25.623Z,756.00
2023-03-12T10:31:25.715Z,724.00
2023-03-12T10:32:25.619Z,752.00
2023-03-12T10:33:25.605Z,744.00
2023-03-12T10:34:25.600Z,704.00
2023-03-12T10:35:25.600Z,668.00
2023-03-12T10:36:25.605Z,648.00
2023-03-12T10:37:25.599Z,660.00
2023-03-12T10:38:25.589Z,720.00
2023-03-12T10:39:25.590Z,732.00
2023-03-12T10:40:25.590Z,736.00
2023-03-12T10:41:25.594Z,724.00
2023-03-12T10:42:25.581Z,680.00
2023-03-12T10:43:25.577Z,676.00
2023-03-12T10:44:25.577Z,664.00
2023-03-12T10:45:25.572Z,684.00
2023-03-12T10:46:25.581Z,716.00
2023-03-12T10:47:25.570Z,744.00
2023-03-12T10:48:25.568Z,784.00
2023-03-12T10:49:25.566Z,844.00
2023-03-12T10:50:25.565Z,888.00
2023-03-12T10:51:25.558Z,908.00
2023-03-12T10:52:25.555Z,868.00
2023-03-12T10:53:27.825Z,848.00
2023-03-12T10:54:25.554Z,908.00
2023-03-12T10:55:25.555Z,900.00
2023-03-12T10:56:25.551Z,868.00
2023-03-12T10:57:25.544Z,880.00
2023-03-12T10:58:25.542Z,904.00
2023-03-12T10:59:25.540Z,916.00
2023-03-12T11:00:25.536Z,928.00
2023-03-12T11:01:25.619Z,948.00
2023-03-12T11:02:25.532Z,964.00
2023-03-12T11:03:25.527Z,1000.00
2023-03-12T11:04:27.518Z,1004.00
2023-03-12T11:05:25.523Z,984.00
2023-03-12T11:06:25.539Z,944.00
2023-03-12T11:07:25.518Z,948.00
2023-03-12T11:08:25.518Z,952.00
2023-03-12T11:09:25.513Z,956.00
2023-03-12T11:10:25.516Z,952.00
2023-03-12T11:11:25.510Z,960.00
2023-03-12T11:12:25.512Z,988.00
2023-03-12T11:13:25.506Z,1044.00
2023-03-12T11:14:25.528Z,1080.00
2023-03-12T11:15:25.504Z,1084.00
2023-03-12T11:16:25.568Z,1080.00
2023-03-12T11:17:25.500Z,1044.00
2023-03-12T11:18:25.507Z,1044.00
2023-03-12T11:19:25.497Z,968.00
2023-03-12T11:20:25.498Z,1008.00
2023-03-12T11:21:25.489Z,936.00
2023-03-12T11:22:25.491Z,940.00
2023-03-12T11:23:25.492Z,868.00
2023-03-12T11:24:25.482Z,828.00
2023-03-12T11:25:25.476Z,816.00
2023-03-12T11:26:25.481Z,856.00
2023-03-12T11:27:25.480Z,928.00
2023-03-12T11:28:25.517Z,952.00
2023-03-12T11:29:25.500Z,1012.00
2023-03-12T11:30:25.506Z,1136.00
2023-03-12T11:31:25.475Z,1244.00
2023-03-12T11:32:25.492Z,1244.00
2023-03-12T11:33:25.459Z,1252.00
2023-03-12T11:34:25.463Z,1252.00
2023-03-12T11:35:25.490Z,1248.00
2023-03-12T11:36:25.455Z,1176.00
2023-03-12T11:37:25.455Z,1156.00
2023-03-12T11:38:25.456Z,1104.00
2023-03-12T11:39:25.456Z,1052.00
2023-03-12T11:40:25.445Z,1064.00
2023-03-12T11:41:25.454Z,1064.00
2023-03-12T11:42:25.453Z,1052.00
2023-03-12T11:43:41.555Z,1068.00
2023-03-12T11:44:25.434Z,1088.00
2023-03-12T11:45:25.436Z,1136.00
2023-03-12T11:46:25.454Z,1180.00
2023-03-12T11:47:25.500Z,1240.00
2023-03-12T11:48:25.459Z,1236.00
2023-03-12T11:49:25.427Z,1208.00
2023-03-12T11:50:25.421Z,1184.00
2023-03-12T11:51:25.443Z,1176.00
2023-03-12T11:52:25.432Z,1204.00
2023-03-12T11:53:25.420Z,1192.00
2023-03-12T11:54:25.435Z,1124.00
2023-03-12T11:55:25.415Z,1068.00
2023-03-12T11:56:25.418Z,1044.00
2023-03-12T11:57:25.408Z,1040.00
2023-03-12T11:58:25.419Z,1060.00
2023-03-12T11:59:25.408Z,1080.00
2023-03-12T12:00:25.414Z,1100.00
2023-03-12T12:01:25.409Z,1092.00
2023-03-12T12:02:25.436Z,1092.00
2023-03-12T12:03:25.416Z,1084.00
2023-03-12T12:04:25.402Z,1064.00
2023-03-12T12:05:25.398Z,1064.00
2023-03-12T12:06:25.399Z,1040.00
2023-03-12T12:07:25.392Z,996.00
2023-03-12T12:08:25.393Z,944.00
2023-03-12T12:09:25.398Z,944.00
2023-03-12T12:10:25.392Z,972.00
2023-03-12T12:11:25.392Z,984.00
2023-03-12T12:12:25.396Z,980.00
2023-03-12T12:13:25.388Z,992.00
2023-03-12T12:14:25.388Z,1028.00
2023-03-12T12:15:25.468Z,1112.00
2023-03-12T12:16:25.440Z,1132.00
2023-03-12T12:17:25.378Z,1092.00
2023-03-12T12:18:25.381Z,1072.00
2023-03-12T12:19:25.379Z,1072.00
2023-03-12T12:20:25.383Z,1080.00
2023-03-12T12:21:25.372Z,1072.00
2023-03-12T12:22:25.374Z,1080.00
2023-03-12T12:23:25.362Z,1068.00
2023-03-12T12:24:25.401Z,1056.00
2023-03-12T12:25:25.381Z,1032.00
2023-03-12T12:26:25.364Z,1024.00
2023-03-12T12:27:25.362Z,1012.00
2023-03-12T12:28:25.361Z,1028.00
2023-03-12T12:29:25.371Z,1016.00
2023-03-12T12:30:25.358Z,1012.00
2023-03-12T12:31:25.472Z,984.00
2023-03-12T12:32:25.412Z,980.00
2023-03-12T12:33:25.355Z,1000.00
2023-03-12T12:34:25.361Z,996.00
2023-03-12T12:35:25.352Z,996.00
2023-03-12T12:36:25.350Z,988.00
2023-03-12T12:37:25.349Z,992.00
2023-03-12T12:38:25.349Z,976.00
2023-03-12T12:39:25.350Z,976.00
2023-03-12T12:40:25.342Z,968.00
2023-03-12T12:41:25.355Z,956.00
2023-03-12T12:42:25.354Z,940.00
2023-03-12T12:43:25.340Z,920.00
2023-03-12T12:44:25.342Z,896.00
2023-03-12T12:45:25.347Z,860.00
2023-03-12T12:46:25.415Z,828.00
2023-03-12T12:47:25.344Z,812.00
2023-03-12T12:48:25.346Z,816.00
2023-03-12T12:49:25.339Z,880.00
2023-03-12T12:50:25.333Z,916.00
2023-03-12T12:51:25.335Z,960.00
2023-03-12T12:52:25.339Z,996.00
2023-03-12T12:53:25.333Z,1012.00
2023-03-12T12:54:25.333Z,1024.00
2023-03-12T12:55:25.354Z,1036.00
2023-03-12T12:56:25.326Z,1048.00
2023-03-12T12:57:25.328Z,1028.00
2023-03-12T12:58:25.325Z,1008.00
2023-03-12T12:59:25.354Z,1008.00
2023-03-12T13:00:25.331Z,1004.00
2023-03-12T13:01:27.673Z,984.00
2023-03-12T13:02:25.327Z,964.00
2023-03-12T13:03:25.331Z,944.00
2023-03-12T13:04:32.561Z,916.00